sensor_id;sensor_type;location;lat;lon;timestamp;P1;durP1;ratioP1;P2;durP2;ratioP2
63312;SDS011;49442;45.640;13.812;2022-10-16T00:01:45;40.95;;;29.30;;
63312;SDS011;49442;45.640;13.812;2022-10-16T00:04:11;43.90;;;30.85;;
63312;SDS011;49442;45.640;13.812;2022-10-16T00:06:37;42.30;;;31.08;;
63312;SDS011;49442;45.640;13.812;2022-10-16T00:09:03;42.08;;;30.58;;
63312;SDS011;49442;45.640;13.812;2022-10-16T00:11:30;41.45;;;30.25;;
63312;SDS011;49442;45.640;13.812;2022-10-16T00:14:02;40.40;;;31.45;;
63312;SDS011;49442;45.640;13.812;2022-10-16T00:16:29;39.63;;;30.42;;
63312;SDS011;49442;45.640;13.812;2022-10-16T00:18:55;42.90;;;31.83;;
63312;SDS011;49442;45.640;13.812;2022-10-16T00:21:23;45.17;;;30.48;;
63312;SDS011;49442;45.640;13.812;2022-10-16T00:23:50;41.05;;;30.70;;
63312;SDS011;49442;45.640;13.812;2022-10-16T00:26:20;38.47;;;29.55;;
63312;SDS011;49442;45.640;13.812;2022-10-16T00:28:47;44.40;;;30.20;;
63312;SDS011;49442;45.640;13.812;2022-10-16T00:31:14;41.33;;;30.40;;
63312;SDS011;49442;45.640;13.812;2022-10-16T00:33:39;42.60;;;28.23;;
63312;SDS011;49442;45.640;13.812;2022-10-16T00:36:06;37.33;;;28.77;;
63312;SDS011;49442;45.640;13.812;2022-10-16T00:38:34;38.25;;;29.08;;
63312;SDS011;49442;45.640;13.812;2022-10-16T00:41:00;42.47;;;30.88;;
63312;SDS011;49442;45.640;13.812;2022-10-16T00:46:05;42.75;;;28.73;;
63312;SDS011;49442;45.640;13.812;2022-10-16T00:48:49;36.58;;;28.88;;
63312;SDS011;49442;45.640;13.812;2022-10-16T00:51:22;40.65;;;30.13;;
63312;SDS011;49442;45.640;13.812;2022-10-16T00:53:51;40.25;;;30.02;;
63312;SDS011;49442;45.640;13.812;2022-10-16T00:56:17;39.20;;;28.92;;
63312;SDS011;49442;45.640;13.812;2022-10-16T00:58:43;43.15;;;30.38;;
63312;SDS011;49442;45.640;13.812;2022-10-16T01:01:09;43.08;;;28.35;;
63312;SDS011;49442;45.640;13.812;2022-10-16T01:03:35;38.65;;;27.70;;
63312;SDS011;49442;45.640;13.812;2022-10-16T01:12:09;42.00;;;29.95;;
63312;SDS011;49442;45.640;13.812;2022-10-16T01:16:55;44.05;;;30.70;;
63312;SDS011;49442;45.640;13.812;2022-10-16T01:22:13;43.03;;;31.05;;
63312;SDS011;49442;45.640;13.812;2022-10-16T01:24:41;40.90;;;29.02;;
63312;SDS011;49442;45.640;13.812;2022-10-16T01:27:28;41.92;;;30.30;;
63312;SDS011;49442;45.640;13.812;2022-10-16T01:30:10;46.17;;;30.35;;
63312;SDS011;49442;45.640;13.812;2022-10-16T01:32:45;37.78;;;29.25;;
63312;SDS011;49442;45.640;13.812;2022-10-16T01:35:26;40.50;;;29.38;;
63312;SDS011;49442;45.640;13.812;2022-10-16T01:40:20;48.72;;;31.88;;
63312;SDS011;49442;45.640;13.812;2022-10-16T01:42:52;45.67;;;30.80;;
63312;SDS011;49442;45.640;13.812;2022-10-16T01:45:24;42.70;;;30.92;;
63312;SDS011;49442;45.640;13.812;2022-10-16T01:47:50;46.20;;;31.48;;
63312;SDS011;49442;45.640;13.812;2022-10-16T01:50:18;42.90;;;31.90;;
63312;SDS011;49442;45.640;13.812;2022-10-16T01:52:46;40.95;;;31.02;;
63312;SDS011;49442;45.640;13.812;2022-10-16T01:55:15;43.47;;;31.35;;
63312;SDS011;49442;45.640;13.812;2022-10-16T01:57:46;49.27;;;31.33;;
63312;SDS011;49442;45.640;13.812;2022-10-16T02:00:15;49.17;;;32.75;;
63312;SDS011;49442;45.640;13.812;2022-10-16T02:02:44;44.97;;;31.42;;
63312;SDS011;49442;45.640;13.812;2022-10-16T02:05:20;51.88;;;33.70;;
63312;SDS011;49442;45.640;13.812;2022-10-16T02:07:51;44.33;;;30.95;;
63312;SDS011;49442;45.640;13.812;2022-10-16T02:10:17;51.60;;;33.88;;
63312;SDS011;49442;45.640;13.812;2022-10-16T02:12:45;44.13;;;32.10;;
63312;SDS011;49442;45.640;13.812;2022-10-16T02:15:15;47.42;;;33.28;;
63312;SDS011;49442;45.640;13.812;2022-10-16T02:17:41;45.03;;;32.42;;
63312;SDS011;49442;45.640;13.812;2022-10-16T02:20:07;51.65;;;33.70;;
63312;SDS011;49442;45.640;13.812;2022-10-16T02:25:22;48.90;;;34.22;;
63312;SDS011;49442;45.640;13.812;2022-10-16T02:27:57;47.08;;;33.55;;
63312;SDS011;49442;45.640;13.812;2022-10-16T02:30:36;48.90;;;33.13;;
63312;SDS011;49442;45.640;13.812;2022-10-16T02:33:26;49.67;;;34.63;;
63312;SDS011;49442;45.640;13.812;2022-10-16T02:35:55;46.58;;;34.50;;
63312;SDS011;49442;45.640;13.812;2022-10-16T02:38:22;47.10;;;32.88;;
63312;SDS011;49442;45.640;13.812;2022-10-16T02:40:50;50.13;;;33.55;;
63312;SDS011;49442;45.640;13.812;2022-10-16T02:43:16;47.97;;;34.22;;
63312;SDS011;49442;45.640;13.812;2022-10-16T02:45:42;49.10;;;35.40;;
63312;SDS011;49442;45.640;13.812;2022-10-16T02:48:08;45.88;;;33.85;;
63312;SDS011;49442;45.640;13.812;2022-10-16T02:50:33;47.15;;;33.00;;
63312;SDS011;49442;45.640;13.812;2022-10-16T02:52:59;49.38;;;34.35;;
63312;SDS011;49442;45.640;13.812;2022-10-16T02:55:25;46.10;;;33.55;;
63312;SDS011;49442;45.640;13.812;2022-10-16T02:57:52;47.92;;;34.75;;
63312;SDS011;49442;45.640;13.812;2022-10-16T03:00:21;47.20;;;32.65;;
63312;SDS011;49442;45.640;13.812;2022-10-16T03:02:47;52.00;;;32.72;;
63312;SDS011;49442;45.640;13.812;2022-10-16T03:05:13;44.50;;;32.30;;
63312;SDS011;49442;45.640;13.812;2022-10-16T03:07:39;46.10;;;32.08;;
63312;SDS011;49442;45.640;13.812;2022-10-16T03:10:05;44.80;;;32.80;;
63312;SDS011;49442;45.640;13.812;2022-10-16T03:12:31;48.53;;;34.50;;
63312;SDS011;49442;45.640;13.812;2022-10-16T03:14:57;47.67;;;33.63;;
63312;SDS011;49442;45.640;13.812;2022-10-16T03:17:23;50.53;;;33.30;;
63312;SDS011;49442;45.640;13.812;2022-10-16T03:19:50;47.45;;;33.20;;
63312;SDS011;49442;45.640;13.812;2022-10-16T03:22:16;48.08;;;35.40;;
63312;SDS011;49442;45.640;13.812;2022-10-16T03:24:41;48.28;;;34.10;;
63312;SDS011;49442;45.640;13.812;2022-10-16T03:27:07;45.53;;;33.90;;
63312;SDS011;49442;45.640;13.812;2022-10-16T03:29:33;53.58;;;34.88;;
63312;SDS011;49442;45.640;13.812;2022-10-16T03:31:59;51.20;;;35.25;;
63312;SDS011;49442;45.640;13.812;2022-10-16T03:34:25;54.67;;;34.95;;
63312;SDS011;49442;45.640;13.812;2022-10-16T03:36:50;48.38;;;34.33;;
63312;SDS011;49442;45.640;13.812;2022-10-16T03:39:16;47.70;;;35.15;;
63312;SDS011;49442;45.640;13.812;2022-10-16T03:41:42;49.40;;;35.00;;
63312;SDS011;49442;45.640;13.812;2022-10-16T03:44:08;49.97;;;34.20;;
63312;SDS011;49442;45.640;13.812;2022-10-16T03:46:34;47.45;;;34.00;;
63312;SDS011;49442;45.640;13.812;2022-10-16T03:48:59;46.03;;;33.33;;
63312;SDS011;49442;45.640;13.812;2022-10-16T03:51:25;48.13;;;34.67;;
63312;SDS011;49442;45.640;13.812;2022-10-16T03:53:51;50.13;;;35.25;;
63312;SDS011;49442;45.640;13.812;2022-10-16T03:56:16;53.35;;;35.50;;
63312;SDS011;49442;45.640;13.812;2022-10-16T03:58:42;50.80;;;36.20;;
63312;SDS011;49442;45.640;13.812;2022-10-16T04:01:08;48.42;;;35.90;;
63312;SDS011;49442;45.640;13.812;2022-10-16T04:03:33;50.95;;;35.72;;
63312;SDS011;49442;45.640;13.812;2022-10-16T04:05:59;49.08;;;35.08;;
63312;SDS011;49442;45.640;13.812;2022-10-16T04:08:25;50.50;;;36.25;;
63312;SDS011;49442;45.640;13.812;2022-10-16T04:10:50;50.92;;;34.63;;
63312;SDS011;49442;45.640;13.812;2022-10-16T04:13:16;49.30;;;35.63;;
63312;SDS011;49442;45.640;13.812;2022-10-16T04:15:42;53.90;;;36.78;;
63312;SDS011;49442;45.640;13.812;2022-10-16T04:18:09;53.63;;;35.85;;
63312;SDS011;49442;45.640;13.812;2022-10-16T04:20:35;54.85;;;36.70;;
63312;SDS011;49442;45.640;13.812;2022-10-16T04:23:00;53.10;;;38.00;;
63312;SDS011;49442;45.640;13.812;2022-10-16T04:25:26;55.80;;;38.78;;
63312;SDS011;49442;45.640;13.812;2022-10-16T04:27:53;52.42;;;36.83;;
63312;SDS011;49442;45.640;13.812;2022-10-16T04:30:19;54.97;;;37.78;;
63312;SDS011;49442;45.640;13.812;2022-10-16T04:32:51;55.50;;;39.38;;
63312;SDS011;49442;45.640;13.812;2022-10-16T04:35:18;55.88;;;38.35;;
63312;SDS011;49442;45.640;13.812;2022-10-16T04:37:45;56.35;;;38.63;;
63312;SDS011;49442;45.640;13.812;2022-10-16T04:40:12;54.38;;;38.03;;
63312;SDS011;49442;45.640;13.812;2022-10-16T04:42:38;53.92;;;38.47;;
63312;SDS011;49442;45.640;13.812;2022-10-16T04:45:04;62.47;;;39.90;;
63312;SDS011;49442;45.640;13.812;2022-10-16T04:47:31;58.22;;;39.45;;
63312;SDS011;49442;45.640;13.812;2022-10-16T04:49:56;57.53;;;38.88;;
63312;SDS011;49442;45.640;13.812;2022-10-16T04:52:22;56.97;;;38.55;;
63312;SDS011;49442;45.640;13.812;2022-10-16T04:54:49;61.75;;;41.40;;
63312;SDS011;49442;45.640;13.812;2022-10-16T04:57:16;67.63;;;40.17;;
63312;SDS011;49442;45.640;13.812;2022-10-16T04:59:42;60.50;;;40.42;;
63312;SDS011;49442;45.640;13.812;2022-10-16T05:02:08;59.08;;;39.65;;
63312;SDS011;49442;45.640;13.812;2022-10-16T05:04:34;63.95;;;42.00;;
63312;SDS011;49442;45.640;13.812;2022-10-16T05:06:59;67.10;;;41.30;;
63312;SDS011;49442;45.640;13.812;2022-10-16T05:09:25;61.45;;;40.30;;
63312;SDS011;49442;45.640;13.812;2022-10-16T05:11:51;67.03;;;42.60;;
63312;SDS011;49442;45.640;13.812;2022-10-16T05:14:17;65.25;;;41.60;;
63312;SDS011;49442;45.640;13.812;2022-10-16T05:16:42;63.30;;;40.75;;
63312;SDS011;49442;45.640;13.812;2022-10-16T05:19:08;64.63;;;41.80;;
63312;SDS011;49442;45.640;13.812;2022-10-16T05:21:34;67.18;;;42.20;;
63312;SDS011;49442;45.640;13.812;2022-10-16T05:23:59;59.25;;;39.80;;
63312;SDS011;49442;45.640;13.812;2022-10-16T05:26:25;62.63;;;39.72;;
63312;SDS011;49442;45.640;13.812;2022-10-16T05:28:51;60.65;;;40.13;;
63312;SDS011;49442;45.640;13.812;2022-10-16T05:31:16;62.88;;;40.65;;
63312;SDS011;49442;45.640;13.812;2022-10-16T05:33:42;59.33;;;40.17;;
63312;SDS011;49442;45.640;13.812;2022-10-16T05:36:09;55.85;;;39.13;;
63312;SDS011;49442;45.640;13.812;2022-10-16T05:38:35;57.67;;;38.35;;
63312;SDS011;49442;45.640;13.812;2022-10-16T05:41:02;61.60;;;38.67;;
63312;SDS011;49442;45.640;13.812;2022-10-16T05:43:29;59.40;;;40.10;;
63312;SDS011;49442;45.640;13.812;2022-10-16T05:46:04;55.67;;;38.55;;
63312;SDS011;49442;45.640;13.812;2022-10-16T05:48:31;55.75;;;38.67;;
63312;SDS011;49442;45.640;13.812;2022-10-16T05:51:02;55.17;;;38.63;;
63312;SDS011;49442;45.640;13.812;2022-10-16T05:53:29;55.75;;;37.10;;
63312;SDS011;49442;45.640;13.812;2022-10-16T05:55:57;57.28;;;38.80;;
63312;SDS011;49442;45.640;13.812;2022-10-16T05:58:24;54.08;;;36.75;;
63312;SDS011;49442;45.640;13.812;2022-10-16T06:00:57;51.72;;;38.33;;
63312;SDS011;49442;45.640;13.812;2022-10-16T06:03:31;61.38;;;41.05;;
63312;SDS011;49442;45.640;13.812;2022-10-16T06:05:58;61.33;;;40.22;;
63312;SDS011;49442;45.640;13.812;2022-10-16T06:08:23;58.80;;;37.92;;
63312;SDS011;49442;45.640;13.812;2022-10-16T06:10:59;58.35;;;42.00;;
63312;SDS011;49442;45.640;13.812;2022-10-16T06:13:29;57.53;;;40.25;;
63312;SDS011;49442;45.640;13.812;2022-10-16T06:15:56;59.13;;;41.63;;
63312;SDS011;49442;45.640;13.812;2022-10-16T06:18:23;56.58;;;41.63;;
63312;SDS011;49442;45.640;13.812;2022-10-16T06:20:49;58.63;;;39.97;;
63312;SDS011;49442;45.640;13.812;2022-10-16T06:23:14;57.25;;;41.15;;
63312;SDS011;49442;45.640;13.812;2022-10-16T06:25:40;55.17;;;40.67;;
63312;SDS011;49442;45.640;13.812;2022-10-16T06:28:06;57.47;;;41.35;;
63312;SDS011;49442;45.640;13.812;2022-10-16T06:30:31;57.42;;;40.95;;
63312;SDS011;49442;45.640;13.812;2022-10-16T06:32:57;61.60;;;40.08;;
63312;SDS011;49442;45.640;13.812;2022-10-16T06:35:22;56.30;;;40.10;;
63312;SDS011;49442;45.640;13.812;2022-10-16T06:37:48;56.65;;;39.92;;
63312;SDS011;49442;45.640;13.812;2022-10-16T06:40:14;57.88;;;39.50;;
63312;SDS011;49442;45.640;13.812;2022-10-16T06:42:40;54.60;;;39.88;;
63312;SDS011;49442;45.640;13.812;2022-10-16T06:45:06;53.65;;;38.20;;
63312;SDS011;49442;45.640;13.812;2022-10-16T06:47:32;54.53;;;39.03;;
63312;SDS011;49442;45.640;13.812;2022-10-16T06:49:58;61.67;;;40.45;;
63312;SDS011;49442;45.640;13.812;2022-10-16T06:52:24;59.50;;;40.30;;
63312;SDS011;49442;45.640;13.812;2022-10-16T06:54:49;55.35;;;41.50;;
63312;SDS011;49442;45.640;13.812;2022-10-16T06:57:15;59.30;;;40.00;;
63312;SDS011;49442;45.640;13.812;2022-10-16T06:59:41;56.40;;;40.47;;
63312;SDS011;49442;45.640;13.812;2022-10-16T07:02:07;55.28;;;39.60;;
63312;SDS011;49442;45.640;13.812;2022-10-16T07:04:35;56.97;;;41.10;;
63312;SDS011;49442;45.640;13.812;2022-10-16T07:07:01;58.17;;;40.20;;
63312;SDS011;49442;45.640;13.812;2022-10-16T07:09:27;53.00;;;39.17;;
63312;SDS011;49442;45.640;13.812;2022-10-16T07:11:52;53.75;;;40.30;;
63312;SDS011;49442;45.640;13.812;2022-10-16T07:14:19;55.05;;;39.58;;
63312;SDS011;49442;45.640;13.812;2022-10-16T07:16:45;57.40;;;40.15;;
63312;SDS011;49442;45.640;13.812;2022-10-16T07:19:12;57.63;;;42.40;;
63312;SDS011;49442;45.640;13.812;2022-10-16T07:21:40;60.38;;;42.30;;
63312;SDS011;49442;45.640;13.812;2022-10-16T07:24:07;57.00;;;40.38;;
63312;SDS011;49442;45.640;13.812;2022-10-16T07:26:39;58.53;;;40.33;;
63312;SDS011;49442;45.640;13.812;2022-10-16T07:29:12;56.30;;;41.05;;
63312;SDS011;49442;45.640;13.812;2022-10-16T07:31:40;55.05;;;40.33;;
63312;SDS011;49442;45.640;13.812;2022-10-16T07:34:05;58.08;;;41.22;;
63312;SDS011;49442;45.640;13.812;2022-10-16T07:36:31;57.13;;;42.92;;
63312;SDS011;49442;45.640;13.812;2022-10-16T07:38:57;56.63;;;41.20;;
63312;SDS011;49442;45.640;13.812;2022-10-16T07:41:22;55.55;;;41.03;;
63312;SDS011;49442;45.640;13.812;2022-10-16T07:43:49;60.97;;;41.80;;
63312;SDS011;49442;45.640;13.812;2022-10-16T07:46:17;53.85;;;38.83;;
63312;SDS011;49442;45.640;13.812;2022-10-16T07:48:44;54.47;;;40.45;;
63312;SDS011;49442;45.640;13.812;2022-10-16T07:51:14;53.97;;;39.78;;
63312;SDS011;49442;45.640;13.812;2022-10-16T07:53:41;52.38;;;39.33;;
63312;SDS011;49442;45.640;13.812;2022-10-16T07:56:07;55.40;;;40.30;;
63312;SDS011;49442;45.640;13.812;2022-10-16T07:58:33;55.05;;;41.33;;
63312;SDS011;49442;45.640;13.812;2022-10-16T08:01:12;55.30;;;42.08;;
63312;SDS011;49442;45.640;13.812;2022-10-16T08:03:46;59.10;;;40.55;;
63312;SDS011;49442;45.640;13.812;2022-10-16T08:06:14;58.30;;;40.85;;
63312;SDS011;49442;45.640;13.812;2022-10-16T08:08:40;56.33;;;41.90;;
63312;SDS011;49442;45.640;13.812;2022-10-16T08:11:06;52.72;;;41.10;;
63312;SDS011;49442;45.640;13.812;2022-10-16T08:13:33;57.55;;;41.17;;
63312;SDS011;49442;45.640;13.812;2022-10-16T08:15:58;55.65;;;41.67;;
63312;SDS011;49442;45.640;13.812;2022-10-16T08:18:24;53.85;;;39.78;;
63312;SDS011;49442;45.640;13.812;2022-10-16T08:20:57;55.67;;;42.15;;
63312;SDS011;49442;45.640;13.812;2022-10-16T08:23:24;49.00;;;38.95;;
63312;SDS011;49442;45.640;13.812;2022-10-16T08:25:51;56.03;;;42.47;;
63312;SDS011;49442;45.640;13.812;2022-10-16T08:28:18;55.28;;;41.80;;
63312;SDS011;49442;45.640;13.812;2022-10-16T08:30:47;61.63;;;43.20;;
63312;SDS011;49442;45.640;13.812;2022-10-16T08:33:13;60.67;;;43.83;;
63312;SDS011;49442;45.640;13.812;2022-10-16T08:35:39;56.95;;;42.65;;
63312;SDS011;49442;45.640;13.812;2022-10-16T08:38:05;61.40;;;45.38;;
63312;SDS011;49442;45.640;13.812;2022-10-16T08:40:32;63.13;;;44.30;;
63312;SDS011;49442;45.640;13.812;2022-10-16T08:48:51;55.42;;;41.90;;
63312;SDS011;49442;45.640;13.812;2022-10-16T08:51:19;56.60;;;42.63;;
63312;SDS011;49442;45.640;13.812;2022-10-16T08:53:54;58.88;;;42.78;;
63312;SDS011;49442;45.640;13.812;2022-10-16T08:56:29;59.72;;;42.00;;
63312;SDS011;49442;45.640;13.812;2022-10-16T08:58:56;56.50;;;40.08;;
63312;SDS011;49442;45.640;13.812;2022-10-16T09:01:23;53.90;;;37.47;;
63312;SDS011;49442;45.640;13.812;2022-10-16T09:07:09;52.88;;;39.05;;
63312;SDS011;49442;45.640;13.812;2022-10-16T09:09:50;54.85;;;39.95;;
63312;SDS011;49442;45.640;13.812;2022-10-16T09:17:54;52.85;;;39.38;;
63312;SDS011;49442;45.640;13.812;2022-10-16T09:23:25;54.78;;;39.13;;
63312;SDS011;49442;45.640;13.812;2022-10-16T09:25:52;54.55;;;37.20;;
63312;SDS011;49442;45.640;13.812;2022-10-16T09:28:19;57.33;;;40.58;;
63312;SDS011;49442;45.640;13.812;2022-10-16T09:30:45;51.60;;;38.83;;
63312;SDS011;49442;45.640;13.812;2022-10-16T09:33:13;58.17;;;41.00;;
63312;SDS011;49442;45.640;13.812;2022-10-16T09:35:44;59.55;;;42.88;;
63312;SDS011;49442;45.640;13.812;2022-10-16T09:38:28;58.42;;;40.53;;
63312;SDS011;49442;45.640;13.812;2022-10-16T09:40:57;59.53;;;43.03;;
63312;SDS011;49442;45.640;13.812;2022-10-16T09:43:29;69.32;;;43.67;;
63312;SDS011;49442;45.640;13.812;2022-10-16T09:46:09;58.10;;;42.78;;
63312;SDS011;49442;45.640;13.812;2022-10-16T09:48:57;66.07;;;42.72;;
63312;SDS011;49442;45.640;13.812;2022-10-16T09:51:32;64.40;;;44.40;;
63312;SDS011;49442;45.640;13.812;2022-10-16T09:54:01;61.90;;;44.17;;
63312;SDS011;49442;45.640;13.812;2022-10-16T09:56:34;70.43;;;46.75;;
63312;SDS011;49442;45.640;13.812;2022-10-16T10:01:56;66.88;;;45.78;;
63312;SDS011;49442;45.640;13.812;2022-10-16T10:04:36;63.42;;;45.65;;
63312;SDS011;49442;45.640;13.812;2022-10-16T10:07:04;61.83;;;44.47;;
63312;SDS011;49442;45.640;13.812;2022-10-16T10:09:38;63.33;;;46.47;;
63312;SDS011;49442;45.640;13.812;2022-10-16T10:12:05;59.30;;;44.13;;
63312;SDS011;49442;45.640;13.812;2022-10-16T10:14:52;55.92;;;43.45;;
63312;SDS011;49442;45.640;13.812;2022-10-16T10:17:21;60.92;;;43.63;;
63312;SDS011;49442;45.640;13.812;2022-10-16T10:19:58;61.28;;;44.28;;
63312;SDS011;49442;45.640;13.812;2022-10-16T10:39:12;56.92;;;43.80;;
63312;SDS011;49442;45.640;13.812;2022-10-16T10:55:13;69.45;;;48.60;;
63312;SDS011;49442;45.640;13.812;2022-10-16T11:03:33;63.40;;;45.17;;
63312;SDS011;49442;45.640;13.812;2022-10-16T11:06:20;62.53;;;46.58;;
63312;SDS011;49442;45.640;13.812;2022-10-16T11:09:02;63.15;;;45.30;;
63312;SDS011;49442;45.640;13.812;2022-10-16T11:11:44;59.85;;;42.95;;
63312;SDS011;49442;45.640;13.812;2022-10-16T11:14:25;69.78;;;43.67;;
63312;SDS011;49442;45.640;13.812;2022-10-16T11:17:04;70.55;;;47.00;;
63312;SDS011;49442;45.640;13.812;2022-10-16T11:20:05;66.95;;;47.10;;
63312;SDS011;49442;45.640;13.812;2022-10-16T11:25:22;59.70;;;42.40;;
63312;SDS011;49442;45.640;13.812;2022-10-16T11:28:10;70.20;;;44.00;;
63312;SDS011;49442;45.640;13.812;2022-10-16T11:30:50;61.95;;;42.42;;
63312;SDS011;49442;45.640;13.812;2022-10-16T11:41:27;60.50;;;42.50;;
63312;SDS011;49442;45.640;13.812;2022-10-16T11:49:26;59.55;;;40.70;;
63312;SDS011;49442;45.640;13.812;2022-10-16T11:54:37;62.35;;;41.50;;
63312;SDS011;49442;45.640;13.812;2022-10-16T11:57:30;60.33;;;42.28;;
63312;SDS011;49442;45.640;13.812;2022-10-16T12:00:05;56.05;;;43.53;;
63312;SDS011;49442;45.640;13.812;2022-10-16T12:08:12;59.60;;;42.38;;
63312;SDS011;49442;45.640;13.812;2022-10-16T12:10:40;60.45;;;42.53;;
63312;SDS011;49442;45.640;13.812;2022-10-16T12:18:37;63.83;;;44.75;;
63312;SDS011;49442;45.640;13.812;2022-10-16T12:21:05;67.20;;;42.53;;
63312;SDS011;49442;45.640;13.812;2022-10-16T12:23:53;58.35;;;41.78;;
63312;SDS011;49442;45.640;13.812;2022-10-16T12:26:31;57.40;;;44.25;;
63312;SDS011;49442;45.640;13.812;2022-10-16T12:31:47;59.05;;;42.45;;
63312;SDS011;49442;45.640;13.812;2022-10-16T12:34:19;62.38;;;43.53;;
63312;SDS011;49442;45.640;13.812;2022-10-16T12:39:46;62.10;;;43.47;;
63312;SDS011;49442;45.640;13.812;2022-10-16T12:44:51;65.55;;;44.10;;
63312;SDS011;49442;45.640;13.812;2022-10-16T12:47:21;63.53;;;43.50;;
63312;SDS011;49442;45.640;13.812;2022-10-16T12:49:51;64.50;;;46.42;;
63312;SDS011;49442;45.640;13.812;2022-10-16T12:54:59;56.80;;;40.78;;
63312;SDS011;49442;45.640;13.812;2022-10-16T13:00:02;59.50;;;40.25;;
63312;SDS011;49442;45.640;13.812;2022-10-16T13:03:04;60.40;;;40.60;;
63312;SDS011;49442;45.640;13.812;2022-10-16T13:06:03;63.28;;;41.13;;
63312;SDS011;49442;45.640;13.812;2022-10-16T13:08:57;58.90;;;41.85;;
63312;SDS011;49442;45.640;13.812;2022-10-16T13:14:36;54.17;;;41.30;;
63312;SDS011;49442;45.640;13.812;2022-10-16T13:17:19;61.20;;;42.90;;
63312;SDS011;49442;45.640;13.812;2022-10-16T13:25:34;57.83;;;42.63;;
63312;SDS011;49442;45.640;13.812;2022-10-16T13:28:15;51.58;;;37.25;;
63312;SDS011;49442;45.640;13.812;2022-10-16T13:30:51;58.33;;;41.80;;
63312;SDS011;49442;45.640;13.812;2022-10-16T13:33:38;57.88;;;41.45;;
63312;SDS011;49442;45.640;13.812;2022-10-16T13:36:17;56.20;;;41.17;;
63312;SDS011;49442;45.640;13.812;2022-10-16T13:41:39;63.97;;;42.65;;
63312;SDS011;49442;45.640;13.812;2022-10-16T13:44:10;63.03;;;41.50;;
63312;SDS011;49442;45.640;13.812;2022-10-16T13:46:44;60.20;;;40.58;;
63312;SDS011;49442;45.640;13.812;2022-10-16T13:49:14;59.55;;;42.05;;
63312;SDS011;49442;45.640;13.812;2022-10-16T13:51:53;56.17;;;40.53;;
63312;SDS011;49442;45.640;13.812;2022-10-16T13:54:20;58.70;;;40.25;;
63312;SDS011;49442;45.640;13.812;2022-10-16T13:56:46;61.58;;;43.50;;
63312;SDS011;49442;45.640;13.812;2022-10-16T13:59:25;58.28;;;41.92;;
63312;SDS011;49442;45.640;13.812;2022-10-16T14:01:57;60.38;;;42.15;;
63312;SDS011;49442;45.640;13.812;2022-10-16T14:04:23;54.35;;;40.40;;
63312;SDS011;49442;45.640;13.812;2022-10-16T14:06:52;60.17;;;42.67;;
63312;SDS011;49442;45.640;13.812;2022-10-16T14:09:22;58.80;;;41.60;;
63312;SDS011;49442;45.640;13.812;2022-10-16T14:11:53;62.13;;;42.58;;
63312;SDS011;49442;45.640;13.812;2022-10-16T14:14:21;53.92;;;40.42;;
63312;SDS011;49442;45.640;13.812;2022-10-16T14:16:48;59.20;;;40.53;;
63312;SDS011;49442;45.640;13.812;2022-10-16T14:19:18;64.88;;;44.08;;
63312;SDS011;49442;45.640;13.812;2022-10-16T14:21:54;55.08;;;40.17;;
63312;SDS011;49442;45.640;13.812;2022-10-16T14:24:25;59.38;;;44.35;;
63312;SDS011;49442;45.640;13.812;2022-10-16T14:26:59;60.15;;;43.53;;
63312;SDS011;49442;45.640;13.812;2022-10-16T14:29:26;57.38;;;40.75;;
63312;SDS011;49442;45.640;13.812;2022-10-16T14:36:54;58.63;;;41.42;;
63312;SDS011;49442;45.640;13.812;2022-10-16T14:39:21;61.63;;;43.80;;
63312;SDS011;49442;45.640;13.812;2022-10-16T14:41:48;63.50;;;42.55;;
63312;SDS011;49442;45.640;13.812;2022-10-16T14:44:17;62.85;;;43.95;;
63312;SDS011;49442;45.640;13.812;2022-10-16T14:46:43;67.72;;;44.38;;
63312;SDS011;49442;45.640;13.812;2022-10-16T14:51:44;58.83;;;42.90;;
63312;SDS011;49442;45.640;13.812;2022-10-16T14:54:14;63.22;;;43.63;;
63312;SDS011;49442;45.640;13.812;2022-10-16T14:56:51;61.17;;;43.87;;
63312;SDS011;49442;45.640;13.812;2022-10-16T15:01:59;63.45;;;42.72;;
63312;SDS011;49442;45.640;13.812;2022-10-16T15:04:25;59.92;;;42.85;;
63312;SDS011;49442;45.640;13.812;2022-10-16T15:06:51;63.00;;;43.55;;
63312;SDS011;49442;45.640;13.812;2022-10-16T15:09:16;64.18;;;42.33;;
63312;SDS011;49442;45.640;13.812;2022-10-16T15:11:42;53.63;;;38.53;;
63312;SDS011;49442;45.640;13.812;2022-10-16T15:14:10;57.70;;;40.50;;
63312;SDS011;49442;45.640;13.812;2022-10-16T15:16:38;56.30;;;39.55;;
63312;SDS011;49442;45.640;13.812;2022-10-16T15:19:06;48.83;;;35.75;;
63312;SDS011;49442;45.640;13.812;2022-10-16T15:21:32;49.65;;;35.72;;
63312;SDS011;49442;45.640;13.812;2022-10-16T15:23:59;52.45;;;38.53;;
63312;SDS011;49442;45.640;13.812;2022-10-16T15:26:26;48.60;;;36.70;;
63312;SDS011;49442;45.640;13.812;2022-10-16T15:28:53;53.38;;;37.25;;
63312;SDS011;49442;45.640;13.812;2022-10-16T15:31:19;56.30;;;38.35;;
63312;SDS011;49442;45.640;13.812;2022-10-16T15:33:48;54.35;;;36.28;;
63312;SDS011;49442;45.640;13.812;2022-10-16T15:36:24;60.92;;;39.67;;
63312;SDS011;49442;45.640;13.812;2022-10-16T15:38:53;48.20;;;34.50;;
63312;SDS011;49442;45.640;13.812;2022-10-16T15:41:20;58.75;;;38.45;;
63312;SDS011;49442;45.640;13.812;2022-10-16T15:43:47;49.33;;;37.05;;
63312;SDS011;49442;45.640;13.812;2022-10-16T15:46:14;54.30;;;39.38;;
63312;SDS011;49442;45.640;13.812;2022-10-16T15:48:42;54.85;;;37.22;;
63312;SDS011;49442;45.640;13.812;2022-10-16T15:51:08;54.53;;;37.45;;
63312;SDS011;49442;45.640;13.812;2022-10-16T15:53:34;68.05;;;41.00;;
63312;SDS011;49442;45.640;13.812;2022-10-16T15:56:03;60.25;;;40.50;;
63312;SDS011;49442;45.640;13.812;2022-10-16T15:58:30;53.72;;;39.40;;
63312;SDS011;49442;45.640;13.812;2022-10-16T16:00:59;56.17;;;39.97;;
63312;SDS011;49442;45.640;13.812;2022-10-16T16:03:26;55.15;;;39.97;;
63312;SDS011;49442;45.640;13.812;2022-10-16T16:05:53;57.00;;;40.08;;
63312;SDS011;49442;45.640;13.812;2022-10-16T16:08:19;52.05;;;39.88;;
63312;SDS011;49442;45.640;13.812;2022-10-16T16:10:46;59.58;;;40.33;;
63312;SDS011;49442;45.640;13.812;2022-10-16T16:13:26;56.72;;;39.35;;
63312;SDS011;49442;45.640;13.812;2022-10-16T16:15:52;61.90;;;41.92;;
63312;SDS011;49442;45.640;13.812;2022-10-16T16:18:18;59.22;;;40.92;;
63312;SDS011;49442;45.640;13.812;2022-10-16T16:20:43;59.15;;;42.65;;
63312;SDS011;49442;45.640;13.812;2022-10-16T16:23:09;65.18;;;43.55;;
63312;SDS011;49442;45.640;13.812;2022-10-16T16:25:35;69.88;;;45.10;;
63312;SDS011;49442;45.640;13.812;2022-10-16T16:28:01;67.85;;;43.95;;
63312;SDS011;49442;45.640;13.812;2022-10-16T16:30:27;64.85;;;42.67;;
63312;SDS011;49442;45.640;13.812;2022-10-16T16:32:52;55.22;;;38.55;;
63312;SDS011;49442;45.640;13.812;2022-10-16T16:35:18;68.40;;;44.20;;
63312;SDS011;49442;45.640;13.812;2022-10-16T16:37:44;66.18;;;43.22;;
63312;SDS011;49442;45.640;13.812;2022-10-16T16:40:09;67.55;;;44.00;;
63312;SDS011;49442;45.640;13.812;2022-10-16T16:42:35;69.18;;;44.30;;